sensor_id;sensor_type;location;lat;lon;timestamp;temperature;humidity
47590;DHT22;33316;52.298;9.056;2023-12-28T00:01:26;9.10;95.50
47590;DHT22;33316;52.298;9.056;2023-12-28T00:03:55;9.10;95.10
47590;DHT22;33316;52.298;9.056;2023-12-28T00:06:22;9.10;95.10
47590;DHT22;33316;52.298;9.056;2023-12-28T00:08:49;9.10;95.30
47590;DHT22;33316;52.298;9.056;2023-12-28T00:11:16;9.20;95.50
47590;DHT22;33316;52.298;9.056;2023-12-28T00:13:46;9.20;95.70
47590;DHT22;33316;52.298;9.056;2023-12-28T00:16:13;9.20;95.90
47590;DHT22;33316;52.298;9.056;2023-12-28T00:18:40;9.20;96.10
47590;DHT22;33316;52.298;9.056;2023-12-28T00:21:11;9.20;96.20
47590;DHT22;33316;52.298;9.056;2023-12-28T00:23:39;9.20;96.40
47590;DHT22;33316;52.298;9.056;2023-12-28T00:26:06;9.20;96.70
47590;DHT22;33316;52.298;9.056;2023-12-28T00:28:33;9.20;96.90
47590;DHT22;33316;52.298;9.056;2023-12-28T00:31:02;9.20;97.10
47590;DHT22;33316;52.298;9.056;2023-12-28T00:33:29;9.20;97.40
47590;DHT22;33316;52.298;9.056;2023-12-28T00:35:56;9.20;97.70
47590;DHT22;33316;52.298;9.056;2023-12-28T00:38:27;9.20;98.10
47590;DHT22;33316;52.298;9.056;2023-12-28T00:40:58;9.20;98.40
47590;DHT22;33316;52.298;9.056;2023-12-28T00:43:25;9.20;98.70
47590;DHT22;33316;52.298;9.056;2023-12-28T00:45:51;9.20;99.00
47590;DHT22;33316;52.298;9.056;2023-12-28T00:48:18;9.20;99.40
47590;DHT22;33316;52.298;9.056;2023-12-28T00:50:46;9.20;99.70
47590;DHT22;33316;52.298;9.056;2023-12-28T00:53:13;9.20;99.90
47590;DHT22;33316;52.298;9.056;2023-12-28T00:55:42;9.10;99.90
47590;DHT22;33316;52.298;9.056;2023-12-28T00:58:09;9.20;99.90
47590;DHT22;33316;52.298;9.056;2023-12-28T01:00:36;9.20;99.90
47590;DHT22;33316;52.298;9.056;2023-12-28T01:03:03;9.20;99.90
47590;DHT22;33316;52.298;9.056;2023-12-28T01:05:31;9.20;99.90
47590;DHT22;33316;52.298;9.056;2023-12-28T01:07:57;9.20;99.90
47590;DHT22;33316;52.298;9.056;2023-12-28T01:10:26;9.20;99.90
47590;DHT22;33316;52.298;9.056;2023-12-28T01:12:55;9.20;99.90
47590;DHT22;33316;52.298;9.056;2023-12-28T01:15:22;9.20;99.90
47590;DHT22;33316;52.298;9.056;2023-12-28T01:17:50;9.20;99.90
47590;DHT22;33316;52.298;9.056;2023-12-28T01:20:17;9.20;99.90
47590;DHT22;33316;52.298;9.056;2023-12-28T01:22:44;9.20;99.90
47590;DHT22;33316;52.298;9.056;2023-12-28T01:25:11;9.20;99.90
47590;DHT22;33316;52.298;9.056;2023-12-28T01:27:38;9.30;99.90
47590;DHT22;33316;52.298;9.056;2023-12-28T01:30:08;9.20;99.90
47590;DHT22;33316;52.298;9.056;2023-12-28T01:32:35;9.20;99.90
47590;DHT22;33316;52.298;9.056;2023-12-28T01:35:02;9.30;99.90
47590;DHT22;33316;52.298;9.056;2023-12-28T01:37:29;9.30;99.90
47590;DHT22;33316;52.298;9.056;2023-12-28T01:40:01;9.30;99.90
47590;DHT22;33316;52.298;9.056;2023-12-28T01:42:29;9.30;99.90
47590;DHT22;33316;52.298;9.056;2023-12-28T01:44:57;9.30;99.90
47590;DHT22;33316;52.298;9.056;2023-12-28T01:47:29;9.30;99.90
47590;DHT22;33316;52.298;9.056;2023-12-28T01:49:56;9.30;99.90
47590;DHT22;33316;52.298;9.056;2023-12-28T01:52:24;9.30;99.90
47590;DHT22;33316;52.298;9.056;2023-12-28T01:54:51;9.30;99.90
47590;DHT22;33316;52.298;9.056;2023-12-28T01:57:19;9.40;99.90
47590;DHT22;33316;52.298;9.056;2023-12-28T01:59:47;9.30;99.90
47590;DHT22;33316;52.298;9.056;2023-12-28T02:02:14;9.40;99.90
47590;DHT22;33316;52.298;9.056;2023-12-28T02:04:43;9.40;99.90
47590;DHT22;33316;52.298;9.056;2023-12-28T02:07:11;9.40;99.90
47590;DHT22;33316;52.298;9.056;2023-12-28T02:09:39;9.40;99.90
47590;DHT22;33316;52.298;9.056;2023-12-28T02:12:06;9.40;99.90
47590;DHT22;33316;52.298;9.056;2023-12-28T02:14:35;9.40;99.90
47590;DHT22;33316;52.298;9.056;2023-12-28T02:17:06;9.40;99.90
47590;DHT22;33316;52.298;9.056;2023-12-28T02:19:42;9.40;99.90
47590;DHT22;33316;52.298;9.056;2023-12-28T02:22:14;9.40;99.90
47590;DHT22;33316;52.298;9.056;2023-12-28T02:25:04;9.40;99.90
47590;DHT22;33316;52.298;9.056;2023-12-28T02:27:31;9.50;99.90
47590;DHT22;33316;52.298;9.056;2023-12-28T02:29:58;9.40;99.90
47590;DHT22;33316;52.298;9.056;2023-12-28T02:32:33;9.50;99.90
47590;DHT22;33316;52.298;9.056;2023-12-28T02:35:09;9.50;99.90
47590;DHT22;33316;52.298;9.056;2023-12-28T02:37:43;9.50;99.90
47590;DHT22;33316;52.298;9.056;2023-12-28T02:40:16;9.50;99.90
47590;DHT22;33316;52.298;9.056;2023-12-28T02:42:43;9.50;99.90
47590;DHT22;33316;52.298;9.056;2023-12-28T02:45:10;9.50;99.90
47590;DHT22;33316;52.298;9.056;2023-12-28T02:47:37;9.50;99.90
47590;DHT22;33316;52.298;9.056;2023-12-28T02:50:06;9.50;99.90
47590;DHT22;33316;52.298;9.056;2023-12-28T02:52:33;9.50;99.90
47590;DHT22;33316;52.298;9.056;2023-12-28T02:55:02;9.60;99.90
47590;DHT22;33316;52.298;9.056;2023-12-28T02:57:32;9.60;99.90
47590;DHT22;33316;52.298;9.056;2023-12-28T02:59:58;9.60;99.90
47590;DHT22;33316;52.298;9.056;2023-12-28T03:02:28;9.60;99.90
47590;DHT22;33316;52.298;9.056;2023-12-28T03:04:56;9.60;99.90
47590;DHT22;33316;52.298;9.056;2023-12-28T03:07:22;9.60;99.90
47590;DHT22;33316;52.298;9.056;2023-12-28T03:09:50;9.60;99.90
47590;DHT22;33316;52.298;9.056;2023-12-28T03:12:16;9.60;99.90
47590;DHT22;33316;52.298;9.056;2023-12-28T03:14:45;9.60;99.90
47590;DHT22;33316;52.298;9.056;2023-12-28T03:17:12;9.60;99.90
47590;DHT22;33316;52.298;9.056;2023-12-28T03:19:39;9.60;99.90
47590;DHT22;33316;52.298;9.056;2023-12-28T03:22:06;9.60;99.90
47590;DHT22;33316;52.298;9.056;2023-12-28T03:24:34;9.60;99.90
47590;DHT22;33316;52.298;9.056;2023-12-28T03:27:00;9.70;99.90
47590;DHT22;33316;52.298;9.056;2023-12-28T03:29:28;9.70;99.90
47590;DHT22;33316;52.298;9.056;2023-12-28T03:31:58;9.70;99.90
47590;DHT22;33316;52.298;9.056;2023-12-28T03:34:27;9.70;99.90
47590;DHT22;33316;52.298;9.056;2023-12-28T03:36:55;9.70;99.90
47590;DHT22;33316;52.298;9.056;2023-12-28T03:39:26;9.70;99.90
47590;DHT22;33316;52.298;9.056;2023-12-28T03:41:54;9.70;99.90
47590;DHT22;33316;52.298;9.056;2023-12-28T03:44:21;9.70;99.90
47590;DHT22;33316;52.298;9.056;2023-12-28T03:46:51;9.80;99.90
47590;DHT22;33316;52.298;9.056;2023-12-28T03:49:21;9.70;99.90
47590;DHT22;33316;52.298;9.056;2023-12-28T03:51:50;9.70;99.90
47590;DHT22;33316;52.298;9.056;2023-12-28T03:54:17;9.80;99.90
47590;DHT22;33316;52.298;9.056;2023-12-28T03:56:47;9.80;99.90
47590;DHT22;33316;52.298;9.056;2023-12-28T03:59:15;9.80;99.90
47590;DHT22;33316;52.298;9.056;2023-12-28T04:01:42;9.80;99.90
47590;DHT22;33316;52.298;9.056;2023-12-28T04:04:10;9.80;99.90
47590;DHT22;33316;52.298;9.056;2023-12-28T04:06:39;9.80;99.90
47590;DHT22;33316;52.298;9.056;2023-12-28T04:09:07;9.80;99.90
47590;DHT22;33316;52.298;9.056;2023-12-28T04:11:34;9.80;99.90
47590;DHT22;33316;52.298;9.056;2023-12-28T04:14:01;9.80;99.90
47590;DHT22;33316;52.298;9.056;2023-12-28T04:16:29;9.80;99.90
47590;DHT22;33316;52.298;9.056;2023-12-28T04:18:57;9.80;99.90
47590;DHT22;33316;52.298;9.056;2023-12-28T04:21:24;9.80;99.90
47590;DHT22;33316;52.298;9.056;2023-12-28T04:23:53;9.80;99.90
47590;DHT22;33316;52.298;9.056;2023-12-28T04:26:19;9.80;99.90
47590;DHT22;33316;52.298;9.056;2023-12-28T04:28:47;9.80;99.90
47590;DHT22;33316;52.298;9.056;2023-12-28T04:31:15;9.80;99.90
47590;DHT22;33316;52.298;9.056;2023-12-28T04:33:44;9.80;99.90
47590;DHT22;33316;52.298;9.056;2023-12-28T04:36:12;9.80;99.90
47590;DHT22;33316;52.298;9.056;2023-12-28T04:38:40;9.80;99.90
47590;DHT22;33316;52.298;9.056;2023-12-28T04:41:09;9.80;99.90
47590;DHT22;33316;52.298;9.056;2023-12-28T04:43:38;9.80;99.90
47590;DHT22;33316;52.298;9.056;2023-12-28T04:46:06;9.90;99.90
47590;DHT22;33316;52.298;9.056;2023-12-28T04:48:34;9.90;99.90
47590;DHT22;33316;52.298;9.056;2023-12-28T04:51:02;9.90;99.90
47590;DHT22;33316;52.298;9.056;2023-12-28T04:53:30;9.90;99.90
47590;DHT22;33316;52.298;9.056;2023-12-28T04:55:57;9.90;99.90
47590;DHT22;33316;52.298;9.056;2023-12-28T04:58:25;9.90;99.90
47590;DHT22;33316;52.298;9.056;2023-12-28T05:00:53;9.90;99.90
47590;DHT22;33316;52.298;9.056;2023-12-28T05:03:20;9.90;99.90
47590;DHT22;33316;52.298;9.056;2023-12-28T05:05:49;9.90;99.90
47590;DHT22;33316;52.298;9.056;2023-12-28T05:08:16;9.90;99.90
47590;DHT22;33316;52.298;9.056;2023-12-28T05:10:43;10.00;99.90
47590;DHT22;33316;52.298;9.056;2023-12-28T05:13:10;10.00;99.90
47590;DHT22;33316;52.298;9.056;2023-12-28T05:15:38;10.00;99.90
47590;DHT22;33316;52.298;9.056;2023-12-28T05:18:05;10.00;99.90
47590;DHT22;33316;52.298;9.056;2023-12-28T05:20:34;10.00;99.90
47590;DHT22;33316;52.298;9.056;2023-12-28T05:23:01;10.00;99.90
47590;DHT22;33316;52.298;9.056;2023-12-28T05:25:28;10.00;99.90
47590;DHT22;33316;52.298;9.056;2023-12-28T05:27:55;10.00;99.90
47590;DHT22;33316;52.298;9.056;2023-12-28T05:30:23;10.00;99.90
47590;DHT22;33316;52.298;9.056;2023-12-28T05:32:51;10.00;99.90
47590;DHT22;33316;52.298;9.056;2023-12-28T05:35:18;10.00;99.90
47590;DHT22;33316;52.298;9.056;2023-12-28T05:37:46;10.00;99.90
47590;DHT22;33316;52.298;9.056;2023-12-28T05:40:13;10.10;99.90
47590;DHT22;33316;52.298;9.056;2023-12-28T05:42:40;10.10;99.90
47590;DHT22;33316;52.298;9.056;2023-12-28T05:45:08;10.10;99.90
47590;DHT22;33316;52.298;9.056;2023-12-28T05:47:35;10.10;99.90
47590;DHT22;33316;52.298;9.056;2023-12-28T05:50:04;10.10;99.90
47590;DHT22;33316;52.298;9.056;2023-12-28T05:52:32;10.10;99.90
47590;DHT22;33316;52.298;9.056;2023-12-28T05:54:59;10.20;99.90
47590;DHT22;33316;52.298;9.056;2023-12-28T05:57:26;10.20;99.90
47590;DHT22;33316;52.298;9.056;2023-12-28T05:59:55;10.20;99.90
47590;DHT22;33316;52.298;9.056;2023-12-28T06:02:22;10.20;99.90
47590;DHT22;33316;52.298;9.056;2023-12-28T06:04:49;10.20;99.90
47590;DHT22;33316;52.298;9.056;2023-12-28T06:07:17;10.20;99.90
47590;DHT22;33316;52.298;9.056;2023-12-28T06:09:44;10.20;99.90
47590;DHT22;33316;52.298;9.056;2023-12-28T06:12:11;10.20;99.90
47590;DHT22;33316;52.298;9.056;2023-12-28T06:14:38;10.20;99.90
47590;DHT22;33316;52.298;9.056;2023-12-28T06:17:07;10.20;99.90
47590;DHT22;33316;52.298;9.056;2023-12-28T06:19:34;10.20;99.90
47590;DHT22;33316;52.298;9.056;2023-12-28T06:22:01;10.20;99.90
47590;DHT22;33316;52.298;9.056;2023-12-28T06:24:32;10.20;99.90
47590;DHT22;33316;52.298;9.056;2023-12-28T06:27:00;10.20;99.90
47590;DHT22;33316;52.298;9.056;2023-12-28T06:29:27;10.20;99.90
47590;DHT22;33316;52.298;9.056;2023-12-28T06:31:55;10.20;99.90
47590;DHT22;33316;52.298;9.056;2023-12-28T06:34:22;10.20;99.90
47590;DHT22;33316;52.298;9.056;2023-12-28T06:36:50;10.20;99.90
47590;DHT22;33316;52.298;9.056;2023-12-28T06:39:17;10.20;99.90
47590;DHT22;33316;52.298;9.056;2023-12-28T06:41:48;10.20;99.90
47590;DHT22;33316;52.298;9.056;2023-12-28T06:44:15;10.20;99.90
47590;DHT22;33316;52.298;9.056;2023-12-28T06:46:45;10.20;99.90
47590;DHT22;33316;52.298;9.056;2023-12-28T06:49:12;10.20;99.90
47590;DHT22;33316;52.298;9.056;2023-12-28T06:51:39;10.20;99.90
47590;DHT22;33316;52.298;9.056;2023-12-28T06:54:08;10.20;99.90
47590;DHT22;33316;52.298;9.056;2023-12-28T06:56:35;10.20;99.90
47590;DHT22;33316;52.298;9.056;2023-12-28T06:59:03;10.20;99.90
47590;DHT22;33316;52.298;9.056;2023-12-28T07:01:31;10.20;99.90
47590;DHT22;33316;52.298;9.056;2023-12-28T07:04:00;10.20;99.90
47590;DHT22;33316;52.298;9.056;2023-12-28T07:06:27;10.20;99.90
47590;DHT22;33316;52.298;9.056;2023-12-28T07:08:55;10.20;99.90
47590;DHT22;33316;52.298;9.056;2023-12-28T07:11:21;10.20;99.90
47590;DHT22;33316;52.298;9.056;2023-12-28T07:13:49;10.20;99.90
47590;DHT22;33316;52.298;9.056;2023-12-28T07:16:17;10.20;99.90
47590;DHT22;33316;52.298;9.056;2023-12-28T07:18:44;10.20;99.90
47590;DHT22;33316;52.298;9.056;2023-12-28T07:21:11;10.20;99.90
47590;DHT22;33316;52.298;9.056;2023-12-28T07:23:39;10.20;99.90
47590;DHT22;33316;52.298;9.056;2023-12-28T07:26:06;10.20;99.90
47590;DHT22;33316;52.298;9.056;2023-12-28T07:28:33;10.20;99.90
47590;DHT22;33316;52.298;9.056;2023-12-28T07:31:00;10.20;99.90
47590;DHT22;33316;52.298;9.056;2023-12-28T07:33:31;10.20;99.90
47590;DHT22;33316;52.298;9.056;2023-12-28T07:35:58;10.20;99.90
47590;DHT22;33316;52.298;9.056;2023-12-28T07:38:28;10.20;99.90
47590;DHT22;33316;52.298;9.056;2023-12-28T07:40:56;10.20;99.90
47590;DHT22;33316;52.298;9.056;2023-12-28T07:43:23;10.20;99.90
47590;DHT22;33316;52.298;9.056;2023-12-28T07:45:54;10.20;99.90
47590;DHT22;33316;52.298;9.056;2023-12-28T07:48:22;10.20;99.90
47590;DHT22;33316;52.298;9.056;2023-12-28T07:50:50;10.20;99.90
47590;DHT22;33316;52.298;9.056;2023-12-28T07:53:19;10.20;99.90
47590;DHT22;33316;52.298;9.056;2023-12-28T07:55:46;10.20;99.90
47590;DHT22;33316;52.298;9.056;2023-12-28T07:58:13;10.20;99.90
47590;DHT22;33316;52.298;9.056;2023-12-28T08:00:40;10.20;99.90
47590;DHT22;33316;52.298;9.056;2023-12-28T08:03:07;10.20;99.90
47590;DHT22;33316;52.298;9.056;2023-12-28T08:05:35;10.20;99.90
47590;DHT22;33316;52.298;9.056;2023-12-28T08:08:04;10.20;99.90
47590;DHT22;33316;52.298;9.056;2023-12-28T08:10:31;10.20;99.90
47590;DHT22;33316;52.298;9.056;2023-12-28T08:12:58;10.20;99.90
47590;DHT22;33316;52.298;9.056;2023-12-28T08:15:24;10.20;99.90
47590;DHT22;33316;52.298;9.056;2023-12-28T08:17:52;10.20;99.90
47590;DHT22;33316;52.298;9.056;2023-12-28T08:20:21;10.30;99.90
47590;DHT22;33316;52.298;9.056;2023-12-28T08:22:48;10.20;99.90
47590;DHT22;33316;52.298;9.056;2023-12-28T08:25:16;10.20;99.90
47590;DHT22;33316;52.298;9.056;2023-12-28T08:27:44;10.20;99.90
47590;DHT22;33316;52.298;9.056;2023-12-28T08:30:12;10.20;99.90
47590;DHT22;33316;52.298;9.056;2023-12-28T08:32:39;10.30;99.90
47590;DHT22;33316;52.298;9.056;2023-12-28T08:35:07;10.30;99.90
47590;DHT22;33316;52.298;9.056;2023-12-28T08:37:34;10.20;99.90
47590;DHT22;33316;52.298;9.056;2023-12-28T08:40:01;10.20;99.90
47590;DHT22;33316;52.298;9.056;2023-12-28T08:42:30;10.30;99.90
47590;DHT22;33316;52.298;9.056;2023-12-28T08:44:57;10.20;99.90
47590;DHT22;33316;52.298;9.056;2023-12-28T08:47:24;10.30;99.90
47590;DHT22;33316;52.298;9.056;2023-12-28T08:49:51;10.30;99.90
47590;DHT22;33316;52.298;9.056;2023-12-28T08:52:18;10.30;99.90
47590;DHT22;33316;52.298;9.056;2023-12-28T08:54:45;10.30;99.90
47590;DHT22;33316;52.298;9.056;2023-12-28T08:57:12;10.30;99.90
47590;DHT22;33316;52.298;9.056;2023-12-28T08:59:42;10.30;99.90
47590;DHT22;33316;52.298;9.056;2023-12-28T09:02:08;10.30;99.90
47590;DHT22;33316;52.298;9.056;2023-12-28T09:04:35;10.30;99.90
47590;DHT22;33316;52.298;9.056;2023-12-28T09:07:02;10.40;99.90
47590;DHT22;33316;52.298;9.056;2023-12-28T09:09:32;10.40;99.90
47590;DHT22;33316;52.298;9.056;2023-12-28T09:11:59;10.40;99.90
47590;DHT22;33316;52.298;9.056;2023-12-28T09:14:26;10.40;99.90
47590;DHT22;33316;52.298;9.056;2023-12-28T09:16:54;10.40;99.90
47590;DHT22;33316;52.298;9.056;2023-12-28T09:19:22;10.40;99.90
47590;DHT22;33316;52.298;9.056;2023-12-28T09:21:49;10.40;99.90
47590;DHT22;33316;52.298;9.056;2023-12-28T09:24:16;10.40;99.90
47590;DHT22;33316;52.298;9.056;2023-12-28T09:26:44;10.40;99.90
47590;DHT22;33316;52.298;9.056;2023-12-28T09:29:11;10.40;99.90
47590;DHT22;33316;52.298;9.056;2023-12-28T09:31:39;10.40;99.90
47590;DHT22;33316;52.298;9.056;2023-12-28T09:34:08;10.40;99.90
47590;DHT22;33316;52.298;9.056;2023-12-28T09:36:36;10.50;99.90
47590;DHT22;33316;52.298;9.056;2023-12-28T09:39:02;10.50;99.90
47590;DHT22;33316;52.298;9.056;2023-12-28T09:41:34;10.50;99.90
47590;DHT22;33316;52.298;9.056;2023-12-28T09:44:07;10.50;99.90
47590;DHT22;33316;52.298;9.056;2023-12-28T09:46:35;10.50;99.90
47590;DHT22;33316;52.298;9.056;2023-12-28T09:49:04;10.60;99.90
47590;DHT22;33316;52.298;9.056;2023-12-28T09:51:33;10.60;99.90
47590;DHT22;33316;52.298;9.056;2023-12-28T09:54:00;10.60;99.90
47590;DHT22;33316;52.298;9.056;2023-12-28T09:56:27;10.60;99.90
47590;DHT22;33316;52.298;9.056;2023-12-28T09:58:55;10.70;99.90
47590;DHT22;33316;52.298;9.056;2023-12-28T10:01:23;10.70;99.90
47590;DHT22;33316;52.298;9.056;2023-12-28T10:03:51;10.70;99.90
47590;DHT22;33316;52.298;9.056;2023-12-28T10:06:18;10.70;99.90
47590;DHT22;33316;52.298;9.056;2023-12-28T10:08:46;10.70;99.90
47590;DHT22;33316;52.298;9.056;2023-12-28T10:11:14;10.80;99.90
47590;DHT22;33316;52.298;9.056;2023-12-28T10:13:42;10.80;99.90
47590;DHT22;33316;52.298;9.056;2023-12-28T10:16:09;10.90;99.90
47590;DHT22;33316;52.298;9.056;2023-12-28T10:18:40;10.90;99.90
47590;DHT22;33316;52.298;9.056;2023-12-28T10:21:06;11.00;99.90
47590;DHT22;33316;52.298;9.056;2023-12-28T10:23:33;11.00;99.90
47590;DHT22;33316;52.298;9.056;2023-12-28T10:26:03;11.00;99.90
47590;DHT22;33316;52.298;9.056;2023-12-28T10:28:31;11.00;99.90
47590;DHT22;33316;52.298;9.056;2023-12-28T10:30:58;11.00;99.80
47590;DHT22;33316;52.298;9.056;2023-12-28T10:33:26;11.00;99.70
47590;DHT22;33316;52.298;9.056;2023-12-28T10:35:54;11.00;99.70
47590;DHT22;33316;52.298;9.056;2023-12-28T10:38:25;11.00;99.60
47590;DHT22;33316;52.298;9.056;2023-12-28T10:40:55;11.00;99.60
47590;DHT22;33316;52.298;9.056;2023-12-28T10:43:24;11.00;99.50
47590;DHT22;33316;52.298;9.056;2023-12-28T10:45:52;11.00;99.50
47590;DHT22;33316;52.298;9.056;2023-12-28T10:48:27;11.00;99.50
47590;DHT22;33316;52.298;9.056;2023-12-28T10:50:57;11.00;99.50
47590;DHT22;33316;52.298;9.056;2023-12-28T10:53:38;11.00;99.50
47590;DHT22;33316;52.298;9.056;2023-12-28T10:56:17;11.00;99.30
47590;DHT22;33316;52.298;9.056;2023-12-28T10:58:49;11.00;99.20
47590;DHT22;33316;52.298;9.056;2023-12-28T11:01:22;11.00;99.10
47590;DHT22;33316;52.298;9.056;2023-12-28T11:03:57;11.10;99.20
47590;DHT22;33316;52.298;9.056;2023-12-28T11:06:26;11.00;99.10
47590;DHT22;33316;52.298;9.056;2023-12-28T11:08:54;11.00;99.10
47590;DHT22;33316;52.298;9.056;2023-12-28T11:11:27;11.10;99.20
47590;DHT22;33316;52.298;9.056;2023-12-28T11:14:00;11.10;99.10
47590;DHT22;33316;52.298;9.056;2023-12-28T11:16:29;11.10;99.10
47590;DHT22;33316;52.298;9.056;2023-12-28T11:18:56;11.10;99.00
47590;DHT22;33316;52.298;9.056;2023-12-28T11:21:24;11.10;99.00
47590;DHT22;33316;52.298;9.056;2023-12-28T11:23:52;11.10;98.90
47590;DHT22;33316;52.298;9.056;2023-12-28T11:26:21;11.10;98.80
47590;DHT22;33316;52.298;9.056;2023-12-28T11:28:48;11.10;98.70
47590;DHT22;33316;52.298;9.056;2023-12-28T11:31:19;11.10;98.60
47590;DHT22;33316;52.298;9.056;2023-12-28T11:33:46;11.10;98.60
47590;DHT22;33316;52.298;9.056;2023-12-28T11:36:22;11.10;98.60
47590;DHT22;33316;52.298;9.056;2023-12-28T11:38:51;11.10;98.50
47590;DHT22;33316;52.298;9.056;2023-12-28T11:41:20;11.10;98.50
47590;DHT22;33316;52.298;9.056;2023-12-28T11:43:52;11.10;98.50
47590;DHT22;33316;52.298;9.056;2023-12-28T11:46:22;11.20;98.40
47590;DHT22;33316;52.298;9.056;2023-12-28T11:48:49;11.20;98.40
47590;DHT22;33316;52.298;9.056;2023-12-28T11:51:16;11.20;98.30
47590;DHT22;33316;52.298;9.056;2023-12-28T11:53:44;11.20;98.30
47590;DHT22;33316;52.298;9.056;2023-12-28T11:56:15;11.20;98.20
47590;DHT22;33316;52.298;9.056;2023-12-28T11:58:42;11.20;98.20
47590;DHT22;33316;52.298;9.056;2023-12-28T12:01:13;11.20;98.10
47590;DHT22;33316;52.298;9.056;2023-12-28T12:03:42;11.30;98.10
47590;DHT22;33316;52.298;9.056;2023-12-28T12:06:09;11.30;98.00
47590;DHT22;33316;52.298;9.056;2023-12-28T12:08:36;11.30;98.00
47590;DHT22;33316;52.298;9.056;2023-12-28T12:11:05;11.30;97.90
47590;DHT22;33316;52.298;9.056;2023-12-28T12:13:32;11.30;97.90
47590;DHT22;33316;52.298;9.056;2023-12-28T12:16:00;11.30;97.80
47590;DHT22;33316;52.298;9.056;2023-12-28T12:18:31;11.30;97.70
47590;DHT22;33316;52.298;9.056;2023-12-28T12:21:00;11.40;97.60
47590;DHT22;33316;52.298;9.056;2023-12-28T12:23:30;11.40;97.50
47590;DHT22;33316;52.298;9.056;2023-12-28T12:25:58;11.40;97.50
47590;DHT22;33316;52.298;9.056;2023-12-28T12:28:25;11.40;97.50
47590;DHT22;33316;52.298;9.056;2023-12-28T12:30:55;11.40;97.40
47590;DHT22;33316;52.298;9.056;2023-12-28T12:33:24;11.50;97.40
47590;DHT22;33316;52.298;9.056;2023-12-28T12:35:52;11.40;97.30
47590;DHT22;33316;52.298;9.056;2023-12-28T12:38:21;11.50;97.30
47590;DHT22;33316;52.298;9.056;2023-12-28T12:40:51;11.50;97.10
47590;DHT22;33316;52.298;9.056;2023-12-28T12:43:18;11.50;97.00
47590;DHT22;33316;52.298;9.056;2023-12-28T12:45:47;11.50;97.00
47590;DHT22;33316;52.298;9.056;2023-12-28T12:48:14;11.50;97.00
47590;DHT22;33316;52.298;9.056;2023-12-28T12:50:41;11.50;96.90
47590;DHT22;33316;52.298;9.056;2023-12-28T12:53:08;11.50;96.80
47590;DHT22;33316;52.298;9.056;2023-12-28T12:55:38;11.50;96.80
47590;DHT22;33316;52.298;9.056;2023-12-28T12:58:07;11.50;96.80
47590;DHT22;33316;52.298;9.056;2023-12-28T13:00:34;11.60;96.70
47590;DHT22;33316;52.298;9.056;2023-12-28T13:03:01;11.50;96.60
47590;DHT22;33316;52.298;9.056;2023-12-28T13:05:29;11.50;96.50
47590;DHT22;33316;52.298;9.056;2023-12-28T13:07:56;11.60;96.50
47590;DHT22;33316;52.298;9.056;2023-12-28T13:10:24;11.60;96.50
47590;DHT22;33316;52.298;9.056;2023-12-28T13:12:54;11.50;96.30
47590;DHT22;33316;52.298;9.056;2023-12-28T13:15:21;11.60;96.40
47590;DHT22;33316;52.298;9.056;2023-12-28T13:17:48;11.50;96.20
47590;DHT22;33316;52.298;9.056;2023-12-28T13:20:15;11.60;96.30
47590;DHT22;33316;52.298;9.056;2023-12-28T13:22:43;11.60;96.60
47590;DHT22;33316;52.298;9.056;2023-12-28T13:25:10;11.60;96.20
47590;DHT22;33316;52.298;9.056;2023-12-28T13:27:37;11.60;96.10
47590;DHT22;33316;52.298;9.056;2023-12-28T13:30:09;11.60;96.10
47590;DHT22;33316;52.298;9.056;2023-12-28T13:32:37;11.60;95.90
47590;DHT22;33316;52.298;9.056;2023-12-28T13:35:04;11.50;95.80
47590;DHT22;33316;52.298;9.056;2023-12-28T13:37:32;11.60;95.80
47590;DHT22;33316;52.298;9.056;2023-12-28T13:40:00;11.50;95.70
47590;DHT22;33316;52.298;9.056;2023-12-28T13:42:31;11.50;95.70
47590;DHT22;33316;52.298;9.056;2023-12-28T13:44:58;11.50;95.70
47590;DHT22;33316;52.298;9.056;2023-12-28T13:47:27;11.60;95.70
47590;DHT22;33316;52.298;9.056;2023-12-28T13:49:54;11.60;95.80
47590;DHT22;33316;52.298;9.056;2023-12-28T13:52:22;11.50;95.70
47590;DHT22;33316;52.298;9.056;2023-12-28T13:54:49;11.60;95.80
47590;DHT22;33316;52.298;9.056;2023-12-28T13:57:18;11.60;95.80
47590;DHT22;33316;52.298;9.056;2023-12-28T13:59:45;11.50;95.50
47590;DHT22;33316;52.298;9.056;2023-12-28T14:02:13;11.50;95.60
47590;DHT22;33316;52.298;9.056;2023-12-28T14:04:42;11.50;95.60
47590;DHT22;33316;52.298;9.056;2023-12-28T14:07:11;11.50;95.60
47590;DHT22;33316;52.298;9.056;2023-12-28T14:09:38;11.50;95.40
47590;DHT22;33316;52.298;9.056;2023-12-28T14:12:06;11.50;95.20
47590;DHT22;33316;52.298;9.056;2023-12-28T14:14:33;11.50;95.20
47590;DHT22;33316;52.298;9.056;2023-12-28T14:17:00;11.50;95.20
47590;DHT22;33316;52.298;9.056;2023-12-28T14:19:29;11.50;95.10
47590;DHT22;33316;52.298;9.056;2023-12-28T14:21:59;11.50;95.10
47590;DHT22;33316;52.298;9.056;2023-12-28T14:24:27;11.50;95.10
47590;DHT22;33316;52.298;9.056;2023-12-28T14:26:55;11.50;95.20
47590;DHT22;33316;52.298;9.056;2023-12-28T14:29:23;11.50;95.10
47590;DHT22;33316;52.298;9.056;2023-12-28T14:31:51;11.50;95.00
47590;DHT22;33316;52.298;9.056;2023-12-28T14:34:19;11.50;94.90
47590;DHT22;33316;52.298;9.056;2023-12-28T14:36:47;11.50;94.90
47590;DHT22;33316;52.298;9.056;2023-12-28T14:39:17;11.50;94.90
47590;DHT22;33316;52.298;9.056;2023-12-28T14:41:45;11.50;94.90
47590;DHT22;33316;52.298;9.056;2023-12-28T14:44:13;11.50;94.90
47590;DHT22;33316;52.298;9.056;2023-12-28T14:46:40;11.50;94.90
47590;DHT22;33316;52.298;9.056;2023-12-28T14:49:07;11.40;94.80
47590;DHT22;33316;52.298;9.056;2023-12-28T14:51:37;11.50;94.80
47590;DHT22;33316;52.298;9.056;2023-12-28T14:54:05;11.50;94.70
47590;DHT22;33316;52.298;9.056;2023-12-28T14:56:33;11.50;94.50
47590;DHT22;33316;52.298;9.056;2023-12-28T14:59:00;11.40;94.50
47590;DHT22;33316;52.298;9.056;2023-12-28T15:01:28;11.40;94.50
47590;DHT22;33316;52.298;9.056;2023-12-28T15:03:55;11.40;94.50
47590;DHT22;33316;52.298;9.056;2023-12-28T15:06:22;11.50;94.40
47590;DHT22;33316;52.298;9.056;2023-12-28T15:08:49;11.40;94.40
47590;DHT22;33316;52.298;9.056;2023-12-28T15:11:17;11.40;94.30
47590;DHT22;33316;52.298;9.056;2023-12-28T15:13:55;11.40;94.40
47590;DHT22;33316;52.298;9.056;2023-12-28T15:16:23;11.40;94.20
47590;DHT22;33316;52.298;9.056;2023-12-28T15:18:55;11.40;94.20
47590;DHT22;33316;52.298;9.056;2023-12-28T15:21:22;11.40;94.00
47590;DHT22;33316;52.298;9.056;2023-12-28T15:23:50;11.40;93.90
47590;DHT22;33316;52.298;9.056;2023-12-28T15:26:17;11.40;94.00
47590;DHT22;33316;52.298;9.056;2023-12-28T15:28:46;11.40;94.00
47590;DHT22;33316;52.298;9.056;2023-12-28T15:31:16;11.40;94.00
47590;DHT22;33316;52.298;9.056;2023-12-28T15:33:43;11.40;93.90
47590;DHT22;33316;52.298;9.056;2023-12-28T15:36:13;11.40;93.90
47590;DHT22;33316;52.298;9.056;2023-12-28T15:38:40;11.40;93.90
47590;DHT22;33316;52.298;9.056;2023-12-28T15:41:08;11.40;93.80